sensor_id;sensor_type;location;lat;lon;timestamp;P1;durP1;ratioP1;P2;durP2;ratioP2
57856;SDS011;43683;48.650;9.290;2022-09-03T00:01:52;2.17;;;1.60;;
57856;SDS011;43683;48.650;9.290;2022-09-03T00:07:15;1.52;;;1.38;;
57856;SDS011;43683;48.650;9.290;2022-09-03T00:09:46;1.63;;;1.52;;
57856;SDS011;43683;48.650;9.290;2022-09-03T00:12:23;2.38;;;1.38;;
57856;SDS011;43683;48.650;9.290;2022-09-03T00:17:43;2.13;;;1.30;;
57856;SDS011;43683;48.650;9.290;2022-09-03T00:22:52;2.63;;;1.50;;
57856;SDS011;43683;48.650;9.290;2022-09-03T00:28:33;2.50;;;1.40;;
57856;SDS011;43683;48.650;9.290;2022-09-03T00:33:51;1.73;;;1.50;;
57856;SDS011;43683;48.650;9.290;2022-09-03T00:36:23;3.00;;;1.80;;
57856;SDS011;43683;48.650;9.290;2022-09-03T00:39:10;2.30;;;1.70;;
57856;SDS011;43683;48.650;9.290;2022-09-03T00:47:05;2.25;;;1.55;;
57856;SDS011;43683;48.650;9.290;2022-09-03T00:49:49;2.67;;;1.80;;
57856;SDS011;43683;48.650;9.290;2022-09-03T01:00:54;2.25;;;1.70;;
57856;SDS011;43683;48.650;9.290;2022-09-03T01:06:16;2.90;;;1.92;;
57856;SDS011;43683;48.650;9.290;2022-09-03T01:08:53;2.20;;;1.98;;
57856;SDS011;43683;48.650;9.290;2022-09-03T01:36:58;3.65;;;2.47;;
57856;SDS011;43683;48.650;9.290;2022-09-03T01:45:59;4.53;;;2.58;;
57856;SDS011;43683;48.650;9.290;2022-09-03T01:48:44;4.10;;;2.50;;
57856;SDS011;43683;48.650;9.290;2022-09-03T01:51:22;2.95;;;2.33;;
57856;SDS011;43683;48.650;9.290;2022-09-03T01:53:56;6.68;;;2.60;;
57856;SDS011;43683;48.650;9.290;2022-09-03T01:57:23;4.10;;;2.58;;
57856;SDS011;43683;48.650;9.290;2022-09-03T02:00:16;4.95;;;2.70;;
57856;SDS011;43683;48.650;9.290;2022-09-03T02:02:45;3.65;;;2.70;;
57856;SDS011;43683;48.650;9.290;2022-09-03T02:05:13;3.30;;;2.50;;
57856;SDS011;43683;48.650;9.290;2022-09-03T02:10:20;4.30;;;2.40;;
57856;SDS011;43683;48.650;9.290;2022-09-03T02:12:53;4.95;;;3.20;;
57856;SDS011;43683;48.650;9.290;2022-09-03T02:15:22;4.20;;;2.72;;
57856;SDS011;43683;48.650;9.290;2022-09-03T02:17:50;3.22;;;2.78;;
57856;SDS011;43683;48.650;9.290;2022-09-03T02:20:21;3.83;;;2.75;;
57856;SDS011;43683;48.650;9.290;2022-09-03T02:22:50;4.40;;;2.75;;
57856;SDS011;43683;48.650;9.290;2022-09-03T02:25:18;3.70;;;2.95;;
57856;SDS011;43683;48.650;9.290;2022-09-03T02:27:44;4.27;;;2.83;;
57856;SDS011;43683;48.650;9.290;2022-09-03T02:32:37;3.85;;;2.63;;
57856;SDS011;43683;48.650;9.290;2022-09-03T02:35:03;3.80;;;2.70;;
57856;SDS011;43683;48.650;9.290;2022-09-03T02:37:29;3.95;;;2.70;;
57856;SDS011;43683;48.650;9.290;2022-09-03T02:39:54;5.32;;;2.70;;
57856;SDS011;43683;48.650;9.290;2022-09-03T02:42:20;4.00;;;2.70;;
57856;SDS011;43683;48.650;9.290;2022-09-03T02:44:51;4.35;;;2.70;;
57856;SDS011;43683;48.650;9.290;2022-09-03T02:47:21;3.08;;;2.50;;
57856;SDS011;43683;48.650;9.290;2022-09-03T02:49:49;3.55;;;2.60;;
57856;SDS011;43683;48.650;9.290;2022-09-03T02:52:15;3.67;;;2.58;;
57856;SDS011;43683;48.650;9.290;2022-09-03T02:54:40;4.38;;;2.88;;
57856;SDS011;43683;48.650;9.290;2022-09-03T02:57:09;3.17;;;2.88;;
57856;SDS011;43683;48.650;9.290;2022-09-03T02:59:38;4.35;;;3.22;;
57856;SDS011;43683;48.650;9.290;2022-09-03T03:02:04;5.32;;;3.13;;
57856;SDS011;43683;48.650;9.290;2022-09-03T03:04:30;5.35;;;3.22;;
57856;SDS011;43683;48.650;9.290;2022-09-03T03:06:56;6.30;;;3.55;;
57856;SDS011;43683;48.650;9.290;2022-09-03T03:09:22;5.18;;;3.85;;
57856;SDS011;43683;48.650;9.290;2022-09-03T03:11:48;6.28;;;3.10;;
57856;SDS011;43683;48.650;9.290;2022-09-03T03:14:15;4.50;;;2.80;;
57856;SDS011;43683;48.650;9.290;2022-09-03T03:16:41;3.67;;;3.00;;
57856;SDS011;43683;48.650;9.290;2022-09-03T03:19:07;4.97;;;3.20;;
57856;SDS011;43683;48.650;9.290;2022-09-03T03:21:33;4.72;;;3.45;;
57856;SDS011;43683;48.650;9.290;2022-09-03T03:23:59;4.10;;;3.03;;
57856;SDS011;43683;48.650;9.290;2022-09-03T03:26:26;3.88;;;2.92;;
57856;SDS011;43683;48.650;9.290;2022-09-03T03:28:55;4.10;;;2.65;;
57856;SDS011;43683;48.650;9.290;2022-09-03T03:31:22;3.47;;;2.67;;
57856;SDS011;43683;48.650;9.290;2022-09-03T03:33:51;4.30;;;3.15;;
57856;SDS011;43683;48.650;9.290;2022-09-03T03:36:22;4.28;;;2.95;;
57856;SDS011;43683;48.650;9.290;2022-09-03T03:41:18;4.82;;;2.90;;
57856;SDS011;43683;48.650;9.290;2022-09-03T03:43:46;4.80;;;2.97;;
57856;SDS011;43683;48.650;9.290;2022-09-03T03:46:12;4.10;;;3.08;;
57856;SDS011;43683;48.650;9.290;2022-09-03T03:48:41;4.75;;;2.95;;
57856;SDS011;43683;48.650;9.290;2022-09-03T03:51:07;4.15;;;3.20;;
57856;SDS011;43683;48.650;9.290;2022-09-03T03:53:34;4.05;;;2.80;;
57856;SDS011;43683;48.650;9.290;2022-09-03T03:56:01;4.82;;;3.15;;
57856;SDS011;43683;48.650;9.290;2022-09-03T03:58:29;3.53;;;2.80;;
57856;SDS011;43683;48.650;9.290;2022-09-03T04:01:02;6.25;;;2.70;;
57856;SDS011;43683;48.650;9.290;2022-09-03T04:03:35;3.53;;;2.60;;
57856;SDS011;43683;48.650;9.290;2022-09-03T04:06:01;3.42;;;2.38;;
57856;SDS011;43683;48.650;9.290;2022-09-03T04:08:29;4.00;;;2.53;;
57856;SDS011;43683;48.650;9.290;2022-09-03T04:10:59;5.55;;;2.70;;
57856;SDS011;43683;48.650;9.290;2022-09-03T04:13:36;4.95;;;2.78;;
57856;SDS011;43683;48.650;9.290;2022-09-03T04:16:07;3.20;;;2.60;;
57856;SDS011;43683;48.650;9.290;2022-09-03T04:18:34;6.78;;;2.50;;
57856;SDS011;43683;48.650;9.290;2022-09-03T04:21:01;2.42;;;2.22;;
57856;SDS011;43683;48.650;9.290;2022-09-03T04:23:28;2.95;;;2.13;;
57856;SDS011;43683;48.650;9.290;2022-09-03T04:25:58;3.75;;;2.40;;
57856;SDS011;43683;48.650;9.290;2022-09-03T04:28:24;3.95;;;2.65;;
57856;SDS011;43683;48.650;9.290;2022-09-03T04:30:50;4.65;;;3.33;;
57856;SDS011;43683;48.650;9.290;2022-09-03T04:33:16;4.78;;;2.75;;
57856;SDS011;43683;48.650;9.290;2022-09-03T04:35:41;3.85;;;2.58;;
57856;SDS011;43683;48.650;9.290;2022-09-03T04:38:07;4.25;;;2.22;;
57856;SDS011;43683;48.650;9.290;2022-09-03T04:40:33;3.85;;;2.47;;
57856;SDS011;43683;48.650;9.290;2022-09-03T04:42:59;3.45;;;2.40;;
57856;SDS011;43683;48.650;9.290;2022-09-03T04:45:24;3.55;;;2.35;;
57856;SDS011;43683;48.650;9.290;2022-09-03T04:48:00;4.22;;;2.63;;
57856;SDS011;43683;48.650;9.290;2022-09-03T04:50:26;2.97;;;2.30;;
57856;SDS011;43683;48.650;9.290;2022-09-03T04:52:54;3.73;;;2.57;;
57856;SDS011;43683;48.650;9.290;2022-09-03T04:55:20;3.67;;;2.80;;
57856;SDS011;43683;48.650;9.290;2022-09-03T04:57:47;3.58;;;2.70;;
57856;SDS011;43683;48.650;9.290;2022-09-03T05:00:12;3.00;;;2.25;;
57856;SDS011;43683;48.650;9.290;2022-09-03T05:02:41;3.72;;;2.75;;
57856;SDS011;43683;48.650;9.290;2022-09-03T05:05:08;4.47;;;2.45;;
57856;SDS011;43683;48.650;9.290;2022-09-03T05:07:33;4.18;;;2.25;;
57856;SDS011;43683;48.650;9.290;2022-09-03T05:10:04;2.53;;;2.17;;
57856;SDS011;43683;48.650;9.290;2022-09-03T05:12:30;2.80;;;2.25;;
57856;SDS011;43683;48.650;9.290;2022-09-03T05:14:57;3.65;;;2.22;;
57856;SDS011;43683;48.650;9.290;2022-09-03T05:17:23;4.47;;;2.67;;
57856;SDS011;43683;48.650;9.290;2022-09-03T05:19:49;3.58;;;2.40;;
57856;SDS011;43683;48.650;9.290;2022-09-03T05:22:15;3.42;;;2.17;;
57856;SDS011;43683;48.650;9.290;2022-09-03T05:24:45;3.58;;;2.03;;
57856;SDS011;43683;48.650;9.290;2022-09-03T05:27:14;4.15;;;2.35;;
57856;SDS011;43683;48.650;9.290;2022-09-03T05:29:43;2.78;;;2.10;;
57856;SDS011;43683;48.650;9.290;2022-09-03T05:32:09;3.63;;;2.22;;
57856;SDS011;43683;48.650;9.290;2022-09-03T05:34:36;2.53;;;2.13;;
57856;SDS011;43683;48.650;9.290;2022-09-03T05:37:02;3.10;;;2.08;;
57856;SDS011;43683;48.650;9.290;2022-09-03T05:39:27;2.55;;;2.03;;
57856;SDS011;43683;48.650;9.290;2022-09-03T05:41:53;2.78;;;2.10;;
57856;SDS011;43683;48.650;9.290;2022-09-03T05:44:18;4.03;;;2.08;;
57856;SDS011;43683;48.650;9.290;2022-09-03T05:46:47;3.33;;;2.33;;
57856;SDS011;43683;48.650;9.290;2022-09-03T05:49:14;3.95;;;2.38;;
57856;SDS011;43683;48.650;9.290;2022-09-03T05:51:39;2.60;;;1.92;;
57856;SDS011;43683;48.650;9.290;2022-09-03T05:54:06;4.32;;;2.53;;
57856;SDS011;43683;48.650;9.290;2022-09-03T05:56:33;2.65;;;2.28;;
57856;SDS011;43683;48.650;9.290;2022-09-03T05:59:00;2.83;;;2.10;;
57856;SDS011;43683;48.650;9.290;2022-09-03T06:01:33;3.88;;;2.42;;
57856;SDS011;43683;48.650;9.290;2022-09-03T06:04:07;4.82;;;2.58;;
57856;SDS011;43683;48.650;9.290;2022-09-03T06:06:36;7.07;;;2.83;;
57856;SDS011;43683;48.650;9.290;2022-09-03T06:09:04;9.55;;;4.05;;
57856;SDS011;43683;48.650;9.290;2022-09-03T06:11:35;5.72;;;2.80;;
57856;SDS011;43683;48.650;9.290;2022-09-03T06:14:02;3.78;;;2.58;;
57856;SDS011;43683;48.650;9.290;2022-09-03T06:16:30;4.28;;;2.85;;
57856;SDS011;43683;48.650;9.290;2022-09-03T06:18:56;2.90;;;2.40;;
57856;SDS011;43683;48.650;9.290;2022-09-03T06:21:26;2.53;;;2.30;;
57856;SDS011;43683;48.650;9.290;2022-09-03T06:23:53;4.75;;;2.70;;
57856;SDS011;43683;48.650;9.290;2022-09-03T06:26:22;3.83;;;2.40;;
57856;SDS011;43683;48.650;9.290;2022-09-03T06:28:48;3.80;;;2.45;;
57856;SDS011;43683;48.650;9.290;2022-09-03T06:31:15;4.00;;;2.67;;
57856;SDS011;43683;48.650;9.290;2022-09-03T06:33:42;3.13;;;2.42;;
57856;SDS011;43683;48.650;9.290;2022-09-03T06:36:12;4.25;;;2.47;;
57856;SDS011;43683;48.650;9.290;2022-09-03T06:38:39;5.25;;;2.58;;
57856;SDS011;43683;48.650;9.290;2022-09-03T06:41:07;4.78;;;2.85;;
57856;SDS011;43683;48.650;9.290;2022-09-03T06:43:38;4.13;;;2.17;;
57856;SDS011;43683;48.650;9.290;2022-09-03T06:46:07;4.53;;;2.65;;
57856;SDS011;43683;48.650;9.290;2022-09-03T06:48:41;3.55;;;2.75;;
57856;SDS011;43683;48.650;9.290;2022-09-03T06:51:10;3.45;;;2.40;;
57856;SDS011;43683;48.650;9.290;2022-09-03T06:53:38;2.80;;;2.47;;
57856;SDS011;43683;48.650;9.290;2022-09-03T06:56:27;5.93;;;2.20;;
57856;SDS011;43683;48.650;9.290;2022-09-03T06:58:53;5.03;;;2.53;;
57856;SDS011;43683;48.650;9.290;2022-09-03T07:01:21;3.08;;;2.70;;
57856;SDS011;43683;48.650;9.290;2022-09-03T07:03:51;3.55;;;2.50;;
57856;SDS011;43683;48.650;9.290;2022-09-03T07:06:22;3.00;;;2.30;;
57856;SDS011;43683;48.650;9.290;2022-09-03T07:08:49;3.00;;;2.50;;
57856;SDS011;43683;48.650;9.290;2022-09-03T07:11:16;3.15;;;2.35;;
57856;SDS011;43683;48.650;9.290;2022-09-03T07:13:44;3.75;;;2.30;;
57856;SDS011;43683;48.650;9.290;2022-09-03T07:16:13;3.90;;;2.25;;
57856;SDS011;43683;48.650;9.290;2022-09-03T07:18:40;2.38;;;2.00;;
57856;SDS011;43683;48.650;9.290;2022-09-03T07:23:37;5.90;;;3.47;;
57856;SDS011;43683;48.650;9.290;2022-09-03T07:26:07;4.30;;;3.38;;
57856;SDS011;43683;48.650;9.290;2022-09-03T07:28:39;11.07;;;5.20;;
57856;SDS011;43683;48.650;9.290;2022-09-03T07:31:06;5.53;;;3.33;;
57856;SDS011;43683;48.650;9.290;2022-09-03T07:33:32;5.63;;;3.17;;
57856;SDS011;43683;48.650;9.290;2022-09-03T07:36:02;3.03;;;2.65;;
57856;SDS011;43683;48.650;9.290;2022-09-03T07:38:30;3.53;;;2.90;;
57856;SDS011;43683;48.650;9.290;2022-09-03T07:41:00;3.22;;;2.60;;
57856;SDS011;43683;48.650;9.290;2022-09-03T07:43:28;3.35;;;2.60;;
57856;SDS011;43683;48.650;9.290;2022-09-03T07:45:57;5.30;;;3.25;;
57856;SDS011;43683;48.650;9.290;2022-09-03T07:48:23;4.65;;;2.92;;
57856;SDS011;43683;48.650;9.290;2022-09-03T07:50:49;3.53;;;2.40;;
57856;SDS011;43683;48.650;9.290;2022-09-03T07:53:15;3.28;;;2.45;;
57856;SDS011;43683;48.650;9.290;2022-09-03T07:55:41;3.60;;;2.40;;
57856;SDS011;43683;48.650;9.290;2022-09-03T07:58:08;2.90;;;2.40;;
57856;SDS011;43683;48.650;9.290;2022-09-03T08:03:01;3.28;;;2.50;;
57856;SDS011;43683;48.650;9.290;2022-09-03T08:05:31;3.97;;;2.35;;
57856;SDS011;43683;48.650;9.290;2022-09-03T08:07:58;4.07;;;2.30;;
57856;SDS011;43683;48.650;9.290;2022-09-03T08:10:25;2.85;;;2.00;;
57856;SDS011;43683;48.650;9.290;2022-09-03T08:12:54;2.65;;;2.15;;
57856;SDS011;43683;48.650;9.290;2022-09-03T08:15:20;2.28;;;1.80;;
57856;SDS011;43683;48.650;9.290;2022-09-03T08:17:45;4.20;;;2.20;;
57856;SDS011;43683;48.650;9.290;2022-09-03T08:20:11;3.38;;;2.28;;
57856;SDS011;43683;48.650;9.290;2022-09-03T08:22:36;3.42;;;2.33;;
57856;SDS011;43683;48.650;9.290;2022-09-03T08:25:02;4.32;;;1.73;;
57856;SDS011;43683;48.650;9.290;2022-09-03T08:27:28;2.45;;;1.85;;
57856;SDS011;43683;48.650;9.290;2022-09-03T08:29:55;2.45;;;2.10;;
57856;SDS011;43683;48.650;9.290;2022-09-03T08:32:20;5.78;;;2.33;;
57856;SDS011;43683;48.650;9.290;2022-09-03T08:34:46;3.33;;;2.00;;
57856;SDS011;43683;48.650;9.290;2022-09-03T08:37:12;3.97;;;2.17;;
57856;SDS011;43683;48.650;9.290;2022-09-03T08:39:37;3.53;;;2.00;;
57856;SDS011;43683;48.650;9.290;2022-09-03T08:44:54;4.28;;;1.90;;
57856;SDS011;43683;48.650;9.290;2022-09-03T08:47:29;2.60;;;1.90;;
57856;SDS011;43683;48.650;9.290;2022-09-03T08:50:33;3.20;;;2.42;;
57856;SDS011;43683;48.650;9.290;2022-09-03T08:53:20;3.40;;;1.95;;
57856;SDS011;43683;48.650;9.290;2022-09-03T08:55:57;3.42;;;2.03;;
57856;SDS011;43683;48.650;9.290;2022-09-03T08:58:28;3.17;;;2.00;;
57856;SDS011;43683;48.650;9.290;2022-09-03T09:06:57;3.50;;;1.75;;
57856;SDS011;43683;48.650;9.290;2022-09-03T09:20:44;2.22;;;1.77;;
57856;SDS011;43683;48.650;9.290;2022-09-03T09:23:19;2.70;;;1.85;;
57856;SDS011;43683;48.650;9.290;2022-09-03T09:25:52;2.75;;;2.10;;
57856;SDS011;43683;48.650;9.290;2022-09-03T09:28:20;2.72;;;2.10;;
57856;SDS011;43683;48.650;9.290;2022-09-03T09:30:48;2.58;;;1.95;;
57856;SDS011;43683;48.650;9.290;2022-09-03T09:33:19;3.65;;;2.78;;
57856;SDS011;43683;48.650;9.290;2022-09-03T09:35:48;4.78;;;1.92;;
57856;SDS011;43683;48.650;9.290;2022-09-03T09:38:13;5.13;;;2.20;;
57856;SDS011;43683;48.650;9.290;2022-09-03T09:40:41;3.58;;;1.73;;
57856;SDS011;43683;48.650;9.290;2022-09-03T09:43:09;2.72;;;1.90;;
57856;SDS011;43683;48.650;9.290;2022-09-03T09:45:38;3.28;;;2.00;;
57856;SDS011;43683;48.650;9.290;2022-09-03T09:48:48;2.60;;;2.00;;
57856;SDS011;43683;48.650;9.290;2022-09-03T09:51:05;2.35;;;1.92;;
57856;SDS011;43683;48.650;9.290;2022-09-03T09:53:36;2.92;;;1.90;;
57856;SDS011;43683;48.650;9.290;2022-09-03T09:58:30;2.45;;;2.00;;
57856;SDS011;43683;48.650;9.290;2022-09-03T10:01:04;2.50;;;1.73;;
57856;SDS011;43683;48.650;9.290;2022-09-03T10:03:38;3.42;;;1.98;;
57856;SDS011;43683;48.650;9.290;2022-09-03T10:06:21;4.45;;;2.42;;
57856;SDS011;43683;48.650;9.290;2022-09-03T10:09:07;4.17;;;1.80;;
57856;SDS011;43683;48.650;9.290;2022-09-03T10:11:35;3.00;;;1.70;;
57856;SDS011;43683;48.650;9.290;2022-09-03T10:14:04;3.85;;;1.90;;
57856;SDS011;43683;48.650;9.290;2022-09-03T10:16:39;2.88;;;1.98;;
57856;SDS011;43683;48.650;9.290;2022-09-03T10:19:16;3.28;;;1.60;;
57856;SDS011;43683;48.650;9.290;2022-09-03T10:21:46;3.22;;;2.20;;
57856;SDS011;43683;48.650;9.290;2022-09-03T10:24:22;3.85;;;2.20;;
57856;SDS011;43683;48.650;9.290;2022-09-03T10:27:11;3.40;;;2.05;;
57856;SDS011;43683;48.650;9.290;2022-09-03T10:29:40;3.60;;;1.98;;
57856;SDS011;43683;48.650;9.290;2022-09-03T10:34:51;3.35;;;2.00;;
57856;SDS011;43683;48.650;9.290;2022-09-03T10:37:37;2.13;;;1.90;;
57856;SDS011;43683;48.650;9.290;2022-09-03T10:48:15;2.40;;;1.90;;
57856;SDS011;43683;48.650;9.290;2022-09-03T10:51:16;2.40;;;2.10;;
57856;SDS011;43683;48.650;9.290;2022-09-03T10:53:59;3.13;;;2.00;;
57856;SDS011;43683;48.650;9.290;2022-09-03T11:05:04;2.70;;;1.95;;
57856;SDS011;43683;48.650;9.290;2022-09-03T11:07:50;2.75;;;2.13;;
57856;SDS011;43683;48.650;9.290;2022-09-03T11:10:29;4.78;;;2.10;;
57856;SDS011;43683;48.650;9.290;2022-09-03T11:13:11;2.42;;;2.10;;
57856;SDS011;43683;48.650;9.290;2022-09-03T11:15:48;4.32;;;2.45;;
57856;SDS011;43683;48.650;9.290;2022-09-03T11:18:27;3.20;;;2.30;;
57856;SDS011;43683;48.650;9.290;2022-09-03T11:21:07;5.10;;;2.20;;
57856;SDS011;43683;48.650;9.290;2022-09-03T11:23:40;4.15;;;2.30;;
57856;SDS011;43683;48.650;9.290;2022-09-03T11:26:09;4.38;;;2.08;;
57856;SDS011;43683;48.650;9.290;2022-09-03T11:34:07;3.63;;;2.47;;
57856;SDS011;43683;48.650;9.290;2022-09-03T11:36:40;2.97;;;2.13;;
57856;SDS011;43683;48.650;9.290;2022-09-03T11:39:32;4.45;;;2.40;;
57856;SDS011;43683;48.650;9.290;2022-09-03T11:42:02;3.92;;;2.20;;
57856;SDS011;43683;48.650;9.290;2022-09-03T11:44:36;3.83;;;2.33;;
57856;SDS011;43683;48.650;9.290;2022-09-03T11:47:20;4.05;;;2.28;;
57856;SDS011;43683;48.650;9.290;2022-09-03T11:49:48;2.30;;;2.10;;
57856;SDS011;43683;48.650;9.290;2022-09-03T11:52:24;2.38;;;2.10;;
57856;SDS011;43683;48.650;9.290;2022-09-03T11:54:56;3.50;;;2.20;;
57856;SDS011;43683;48.650;9.290;2022-09-03T11:57:24;2.92;;;2.03;;
57856;SDS011;43683;48.650;9.290;2022-09-03T12:00:05;3.97;;;2.20;;
57856;SDS011;43683;48.650;9.290;2022-09-03T12:02:49;3.30;;;2.22;;
57856;SDS011;43683;48.650;9.290;2022-09-03T12:05:32;4.57;;;2.65;;
57856;SDS011;43683;48.650;9.290;2022-09-03T12:22:15;3.17;;;1.00;;
57856;SDS011;43683;48.650;9.290;2022-09-03T12:27:19;7.00;;;1.63;;
57856;SDS011;43683;48.650;9.290;2022-09-03T12:30:01;3.95;;;1.50;;
57856;SDS011;43683;48.650;9.290;2022-09-03T12:32:30;3.80;;;1.40;;
57856;SDS011;43683;48.650;9.290;2022-09-03T12:37:56;3.20;;;1.60;;
57856;SDS011;43683;48.650;9.290;2022-09-03T12:40:23;2.72;;;1.30;;
57856;SDS011;43683;48.650;9.290;2022-09-03T12:42:50;4.72;;;1.88;;
57856;SDS011;43683;48.650;9.290;2022-09-03T12:45:18;2.72;;;1.40;;
57856;SDS011;43683;48.650;9.290;2022-09-03T12:47:50;4.32;;;1.52;;
57856;SDS011;43683;48.650;9.290;2022-09-03T12:50:20;3.05;;;1.55;;
57856;SDS011;43683;48.650;9.290;2022-09-03T12:52:51;4.60;;;1.63;;
57856;SDS011;43683;48.650;9.290;2022-09-03T12:55:34;2.67;;;1.30;;
57856;SDS011;43683;48.650;9.290;2022-09-03T12:58:07;5.50;;;1.60;;
57856;SDS011;43683;48.650;9.290;2022-09-03T13:00:39;2.95;;;1.75;;
57856;SDS011;43683;48.650;9.290;2022-09-03T13:03:11;3.17;;;1.25;;
57856;SDS011;43683;48.650;9.290;2022-09-03T13:05:53;3.28;;;1.70;;
57856;SDS011;43683;48.650;9.290;2022-09-03T13:08:23;4.10;;;1.60;;
57856;SDS011;43683;48.650;9.290;2022-09-03T13:10:54;2.25;;;1.30;;
57856;SDS011;43683;48.650;9.290;2022-09-03T13:13:26;3.30;;;1.23;;
57856;SDS011;43683;48.650;9.290;2022-09-03T13:21:47;3.40;;;1.40;;
57856;SDS011;43683;48.650;9.290;2022-09-03T13:24:48;3.45;;;1.45;;
57856;SDS011;43683;48.650;9.290;2022-09-03T13:30:18;2.47;;;1.15;;
57856;SDS011;43683;48.650;9.290;2022-09-03T13:35:50;2.20;;;1.30;;
57856;SDS011;43683;48.650;9.290;2022-09-03T13:38:42;1.80;;;1.00;;
57856;SDS011;43683;48.650;9.290;2022-09-03T13:43:44;1.95;;;1.00;;
57856;SDS011;43683;48.650;9.290;2022-09-03T13:49:08;1.42;;;1.00;;
57856;SDS011;43683;48.650;9.290;2022-09-03T13:52:21;1.10;;;0.82;;
57856;SDS011;43683;48.650;9.290;2022-09-03T13:54:53;1.23;;;0.68;;
57856;SDS011;43683;48.650;9.290;2022-09-03T13:57:29;2.15;;;1.02;;
57856;SDS011;43683;48.650;9.290;2022-09-03T14:00:11;1.17;;;0.70;;
57856;SDS011;43683;48.650;9.290;2022-09-03T14:02:49;0.80;;;0.73;;
57856;SDS011;43683;48.650;9.290;2022-09-03T14:07:53;1.13;;;0.70;;
57856;SDS011;43683;48.650;9.290;2022-09-03T14:10:37;1.95;;;1.00;;
57856;SDS011;43683;48.650;9.290;2022-09-03T14:21:18;1.88;;;1.00;;
57856;SDS011;43683;48.650;9.290;2022-09-03T14:26:56;0.85;;;0.80;;
57856;SDS011;43683;48.650;9.290;2022-09-03T14:29:28;1.95;;;0.82;;
57856;SDS011;43683;48.650;9.290;2022-09-03T14:34:59;1.60;;;0.80;;
57856;SDS011;43683;48.650;9.290;2022-09-03T14:37:57;1.05;;;0.95;;
57856;SDS011;43683;48.650;9.290;2022-09-03T14:46:31;1.73;;;0.90;;
57856;SDS011;43683;48.650;9.290;2022-09-03T14:49:14;1.15;;;0.80;;
57856;SDS011;43683;48.650;9.290;2022-09-03T14:52:10;1.75;;;0.68;;
57856;SDS011;43683;48.650;9.290;2022-09-03T14:57:30;0.85;;;0.68;;
57856;SDS011;43683;48.650;9.290;2022-09-03T15:08:37;2.45;;;0.90;;
57856;SDS011;43683;48.650;9.290;2022-09-03T15:11:24;0.70;;;0.70;;
57856;SDS011;43683;48.650;9.290;2022-09-03T15:16:29;2.15;;;0.95;;
57856;SDS011;43683;48.650;9.290;2022-09-03T15:30:14;1.40;;;0.70;;
57856;SDS011;43683;48.650;9.290;2022-09-03T15:38:35;1.40;;;0.60;;
57856;SDS011;43683;48.650;9.290;2022-09-03T15:41:18;0.60;;;0.50;;
57856;SDS011;43683;48.650;9.290;2022-09-03T15:43:59;1.35;;;0.68;;
57856;SDS011;43683;48.650;9.290;2022-09-03T15:46:44;0.70;;;0.70;;
57856;SDS011;43683;48.650;9.290;2022-09-03T15:49:19;1.88;;;0.77;;
57856;SDS011;43683;48.650;9.290;2022-09-03T15:51:57;2.80;;;0.70;;
57856;SDS011;43683;48.650;9.290;2022-09-03T15:54:52;1.42;;;0.75;;
57856;SDS011;43683;48.650;9.290;2022-09-03T15:57:44;2.88;;;0.60;;
57856;SDS011;43683;48.650;9.290;2022-09-03T16:00:18;1.40;;;0.70;;
57856;SDS011;43683;48.650;9.290;2022-09-03T16:02:46;1.10;;;0.60;;
57856;SDS011;43683;48.650;9.290;2022-09-03T16:05:46;1.15;;;0.70;;
57856;SDS011;43683;48.650;9.290;2022-09-03T16:08:36;1.77;;;0.82;;
57856;SDS011;43683;48.650;9.290;2022-09-03T16:24:33;1.10;;;0.90;;
57856;SDS011;43683;48.650;9.290;2022-09-03T16:27:10;2.15;;;0.80;;
57856;SDS011;43683;48.650;9.290;2022-09-03T16:29:39;1.27;;;0.75;;
57856;SDS011;43683;48.650;9.290;2022-09-03T16:32:15;1.63;;;1.08;;
57856;SDS011;43683;48.650;9.290;2022-09-03T16:34:55;2.45;;;1.15;;
57856;SDS011;43683;48.650;9.290;2022-09-03T16:37:48;1.45;;;1.00;;
57856;SDS011;43683;48.650;9.290;2022-09-03T16:55:01;2.22;;;1.20;;
57856;SDS011;43683;48.650;9.290;2022-09-03T17:00:21;1.73;;;1.23;;
57856;SDS011;43683;48.650;9.290;2022-09-03T17:09:02;1.30;;;1.20;;
57856;SDS011;43683;48.650;9.290;2022-09-03T17:19:44;1.40;;;1.00;;
57856;SDS011;43683;48.650;9.290;2022-09-03T17:25:18;1.33;;;0.80;;
57856;SDS011;43683;48.650;9.290;2022-09-03T17:27:56;2.92;;;0.93;;
57856;SDS011;43683;48.650;9.290;2022-09-03T17:36:23;3.08;;;1.45;;
57856;SDS011;43683;48.650;9.290;2022-09-03T17:44:46;4.22;;;1.20;;
57856;SDS011;43683;48.650;9.290;2022-09-03T17:47:46;2.88;;;1.33;;
57856;SDS011;43683;48.650;9.290;2022-09-03T17:50:49;5.32;;;1.15;;
57856;SDS011;43683;48.650;9.290;2022-09-03T17:53:22;2.75;;;1.27;;
57856;SDS011;43683;48.650;9.290;2022-09-03T17:56:00;2.30;;;1.70;;
57856;SDS011;43683;48.650;9.290;2022-09-03T17:58:34;3.67;;;1.90;;
57856;SDS011;43683;48.650;9.290;2022-09-03T18:03:52;3.17;;;2.22;;
57856;SDS011;43683;48.650;9.290;2022-09-03T18:06:21;1.98;;;1.42;;
57856;SDS011;43683;48.650;9.290;2022-09-03T18:08:56;2.55;;;1.33;;
57856;SDS011;43683;48.650;9.290;2022-09-03T18:16:51;2.03;;;1.60;;
57856;SDS011;43683;48.650;9.290;2022-09-03T18:22:00;2.45;;;1.35;;
57856;SDS011;43683;48.650;9.290;2022-09-03T18:24:51;3.05;;;1.70;;
57856;SDS011;43683;48.650;9.290;2022-09-03T18:27:52;3.67;;;1.70;;
57856;SDS011;43683;48.650;9.290;2022-09-03T18:30:40;3.47;;;1.92;;
57856;SDS011;43683;48.650;9.290;2022-09-03T18:33:24;2.50;;;1.50;;
57856;SDS011;43683;48.650;9.290;2022-09-03T18:36:09;1.90;;;1.52;;
57856;SDS011;43683;48.650;9.290;2022-09-03T18:39:37;3.95;;;1.88;;
57856;SDS011;43683;48.650;9.290;2022-09-03T18:52:00;2.95;;;1.60;;
57856;SDS011;43683;48.650;9.290;2022-09-03T18:54:39;2.33;;;1.50;;
57856;SDS011;43683;48.650;9.290;2022-09-03T18:57:35;2.80;;;1.50;;
57856;SDS011;43683;48.650;9.290;2022-09-03T19:00:48;1.73;;;1.40;;
57856;SDS011;43683;48.650;9.290;2022-09-03T19:04:05;3.63;;;2.50;;
57856;SDS011;43683;48.650;9.290;2022-09-03T19:07:04;5.82;;;2.65;;
57856;SDS011;43683;48.650;9.290;2022-09-03T19:10:07;5.07;;;2.20;;
57856;SDS011;43683;48.650;9.290;2022-09-03T19:26:13;2.72;;;2.05;;
57856;SDS011;43683;48.650;9.290;2022-09-03T19:29:40;4.22;;;2.00;;
57856;SDS011;43683;48.650;9.290;2022-09-03T19:36:03;2.63;;;1.83;;
57856;SDS011;43683;48.650;9.290;2022-09-03T19:39:28;4.45;;;1.80;;
57856;SDS011;43683;48.650;9.290;2022-09-03T19:42:21;5.53;;;2.10;;
57856;SDS011;43683;48.650;9.290;2022-09-03T19:45:21;3.97;;;2.10;;
57856;SDS011;43683;48.650;9.290;2022-09-03T19:48:23;3.55;;;2.28;;
57856;SDS011;43683;48.650;9.290;2022-09-03T19:51:24;3.45;;;2.33;;
57856;SDS011;43683;48.650;9.290;2022-09-03T19:54:21;4.75;;;2.20;;
57856;SDS011;43683;48.650;9.290;2022-09-03T19:57:08;5.30;;;2.65;;
57856;SDS011;43683;48.650;9.290;2022-09-03T19:59:55;3.63;;;2.25;;
57856;SDS011;43683;48.650;9.290;2022-09-03T20:02:41;3.78;;;2.30;;
57856;SDS011;43683;48.650;9.290;2022-09-03T20:05:28;3.65;;;2.30;;
57856;SDS011;43683;48.650;9.290;2022-09-03T20:08:12;3.75;;;2.10;;
57856;SDS011;43683;48.650;9.290;2022-09-03T20:10:59;6.65;;;2.55;;
57856;SDS011;43683;48.650;9.290;2022-09-03T20:13:27;4.78;;;2.50;;
57856;SDS011;43683;48.650;9.290;2022-09-03T20:16:15;5.88;;;2.67;;
57856;SDS011;43683;48.650;9.290;2022-09-03T20:21:30;4.38;;;2.38;;
57856;SDS011;43683;48.650;9.290;2022-09-03T20:29:29;5.30;;;2.80;;
57856;SDS011;43683;48.650;9.290;2022-09-03T20:35:07;5.05;;;2.58;;
57856;SDS011;43683;48.650;9.290;2022-09-03T20:37:40;4.78;;;2.67;;
57856;SDS011;43683;48.650;9.290;2022-09-03T20:40:16;5.55;;;3.03;;
57856;SDS011;43683;48.650;9.290;2022-09-03T20:43:04;4.63;;;2.65;;
57856;SDS011;43683;48.650;9.290;2022-09-03T20:48:56;5.68;;;3.05;;
57856;SDS011;43683;48.650;9.290;2022-09-03T20:51:52;6.18;;;3.00;;
57856;SDS011;43683;48.650;9.290;2022-09-03T20:54:31;5.93;;;2.83;;
57856;SDS011;43683;48.650;9.290;2022-09-03T21:00:12;4.70;;;2.88;;